sensor_id;sensor_type;location;lat;lon;timestamp;pressure;altitude;pressure_sealevel;temperature;humidity
28448;BME280;15675;52.870;-1.416;2023-03-22T00:02:11;99299.75;;;10.57;100.00
28448;BME280;15675;52.870;-1.416;2023-03-22T00:04:36;99293.47;;;10.70;100.00
28448;BME280;15675;52.870;-1.416;2023-03-22T00:07:02;99272.41;;;10.84;100.00
28448;BME280;15675;52.870;-1.416;2023-03-22T00:09:27;99268.59;;;10.59;100.00
28448;BME280;15675;52.870;-1.416;2023-03-22T00:11:53;99269.81;;;10.86;100.00
28448;BME280;15675;52.870;-1.416;2023-03-22T00:14:19;99264.78;;;10.77;100.00
28448;BME280;15675;52.870;-1.416;2023-03-22T00:16:44;99257.09;;;10.72;100.00
28448;BME280;15675;52.870;-1.416;2023-03-22T00:19:11;99251.88;;;10.74;100.00
28448;BME280;15675;52.870;-1.416;2023-03-22T00:21:36;99243.75;;;10.91;100.00
28448;BME280;15675;52.870;-1.416;2023-03-22T00:24:02;99238.91;;;10.74;100.00
28448;BME280;15675;52.870;-1.416;2023-03-22T00:26:28;99243.59;;;10.98;100.00
28448;BME280;15675;52.870;-1.416;2023-03-22T00:28:53;99231.13;;;10.74;100.00
28448;BME280;15675;52.870;-1.416;2023-03-22T00:31:18;99250.28;;;11.09;100.00
28448;BME280;15675;52.870;-1.416;2023-03-22T00:33:44;99231.56;;;10.94;100.00
28448;BME280;15675;52.870;-1.416;2023-03-22T00:36:10;99232.63;;;11.25;100.00
28448;BME280;15675;52.870;-1.416;2023-03-22T00:38:37;99227.38;;;11.28;100.00
28448;BME280;15675;52.870;-1.416;2023-03-22T00:41:23;99219.91;;;11.12;100.00
28448;BME280;15675;52.870;-1.416;2023-03-22T00:43:49;99193.09;;;11.12;100.00
28448;BME280;15675;52.870;-1.416;2023-03-22T00:46:17;99207.94;;;11.07;100.00
28448;BME280;15675;52.870;-1.416;2023-03-22T00:48:44;99197.44;;;11.11;100.00
28448;BME280;15675;52.870;-1.416;2023-03-22T00:51:10;99192.59;;;10.94;100.00
28448;BME280;15675;52.870;-1.416;2023-03-22T00:53:38;99186.09;;;11.15;100.00
28448;BME280;15675;52.870;-1.416;2023-03-22T00:56:04;99182.84;;;11.05;100.00
28448;BME280;15675;52.870;-1.416;2023-03-22T00:58:30;99181.09;;;11.08;100.00
28448;BME280;15675;52.870;-1.416;2023-03-22T01:00:56;99181.88;;;11.10;100.00
28448;BME280;15675;52.870;-1.416;2023-03-22T01:03:21;99164.50;;;11.13;100.00
28448;BME280;15675;52.870;-1.416;2023-03-22T01:05:51;99170.63;;;11.47;100.00
28448;BME280;15675;52.870;-1.416;2023-03-22T01:08:16;99153.56;;;11.36;100.00
28448;BME280;15675;52.870;-1.416;2023-03-22T01:10:43;99138.31;;;11.57;100.00
28448;BME280;15675;52.870;-1.416;2023-03-22T01:13:09;99126.06;;;11.28;100.00
28448;BME280;15675;52.870;-1.416;2023-03-22T01:15:36;99117.41;;;11.27;100.00
28448;BME280;15675;52.870;-1.416;2023-03-22T01:18:02;99123.72;;;11.17;100.00
28448;BME280;15675;52.870;-1.416;2023-03-22T01:20:28;99113.94;;;11.28;100.00
28448;BME280;15675;52.870;-1.416;2023-03-22T01:22:53;99102.00;;;11.21;100.00
28448;BME280;15675;52.870;-1.416;2023-03-22T01:25:19;99093.59;;;11.10;100.00
28448;BME280;15675;52.870;-1.416;2023-03-22T01:27:45;99109.31;;;11.39;100.00
28448;BME280;15675;52.870;-1.416;2023-03-22T01:30:11;99073.22;;;11.30;100.00
28448;BME280;15675;52.870;-1.416;2023-03-22T01:32:37;99066.03;;;11.38;100.00
28448;BME280;15675;52.870;-1.416;2023-03-22T01:35:04;99080.22;;;11.27;100.00
28448;BME280;15675;52.870;-1.416;2023-03-22T01:37:30;99071.38;;;11.34;100.00
28448;BME280;15675;52.870;-1.416;2023-03-22T01:39:57;99055.13;;;11.26;100.00
28448;BME280;15675;52.870;-1.416;2023-03-22T01:42:23;99055.69;;;11.37;100.00
28448;BME280;15675;52.870;-1.416;2023-03-22T01:47:47;99062.38;;;11.47;100.00
28448;BME280;15675;52.870;-1.416;2023-03-22T01:50:15;99044.34;;;11.41;100.00
28448;BME280;15675;52.870;-1.416;2023-03-22T01:52:41;99019.38;;;11.35;100.00
28448;BME280;15675;52.870;-1.416;2023-03-22T01:55:07;99024.25;;;11.48;100.00
28448;BME280;15675;52.870;-1.416;2023-03-22T01:57:34;99034.47;;;11.54;100.00
28448;BME280;15675;52.870;-1.416;2023-03-22T02:00:08;99015.31;;;11.58;100.00
28448;BME280;15675;52.870;-1.416;2023-03-22T02:02:37;99016.16;;;11.58;100.00
28448;BME280;15675;52.870;-1.416;2023-03-22T02:05:03;99013.88;;;11.79;100.00
28448;BME280;15675;52.870;-1.416;2023-03-22T02:07:29;99011.09;;;11.54;100.00
28448;BME280;15675;52.870;-1.416;2023-03-22T02:09:56;99017.19;;;11.53;100.00
28448;BME280;15675;52.870;-1.416;2023-03-22T02:12:53;99002.03;;;11.69;100.00
28448;BME280;15675;52.870;-1.416;2023-03-22T02:15:26;98981.78;;;11.49;100.00
28448;BME280;15675;52.870;-1.416;2023-03-22T02:18:29;99002.91;;;11.36;100.00
28448;BME280;15675;52.870;-1.416;2023-03-22T02:27:43;98989.59;;;11.49;100.00
28448;BME280;15675;52.870;-1.416;2023-03-22T02:33:11;98984.50;;;11.75;100.00
28448;BME280;15675;52.870;-1.416;2023-03-22T02:36:15;98965.69;;;11.67;100.00
28448;BME280;15675;52.870;-1.416;2023-03-22T02:39:05;98982.97;;;11.68;100.00
28448;BME280;15675;52.870;-1.416;2023-03-22T02:52:31;98958.88;;;11.63;100.00
28448;BME280;15675;52.870;-1.416;2023-03-22T02:57:54;98952.25;;;11.51;100.00
28448;BME280;15675;52.870;-1.416;2023-03-22T03:00:24;98955.56;;;11.88;100.00
28448;BME280;15675;52.870;-1.416;2023-03-22T03:02:53;98952.75;;;11.66;100.00
28448;BME280;15675;52.870;-1.416;2023-03-22T03:05:22;98920.91;;;11.57;100.00
28448;BME280;15675;52.870;-1.416;2023-03-22T03:07:55;98947.31;;;11.73;100.00
28448;BME280;15675;52.870;-1.416;2023-03-22T03:10:22;98948.47;;;11.93;100.00
28448;BME280;15675;52.870;-1.416;2023-03-22T03:12:48;98942.13;;;11.73;100.00
28448;BME280;15675;52.870;-1.416;2023-03-22T03:15:16;98945.75;;;11.68;100.00
28448;BME280;15675;52.870;-1.416;2023-03-22T03:20:53;98942.91;;;11.75;100.00
28448;BME280;15675;52.870;-1.416;2023-03-22T03:26:19;98927.81;;;11.58;100.00
28448;BME280;15675;52.870;-1.416;2023-03-22T03:31:31;98904.84;;;11.74;100.00
28448;BME280;15675;52.870;-1.416;2023-03-22T03:34:46;98903.38;;;11.66;100.00
28448;BME280;15675;52.870;-1.416;2023-03-22T03:36:56;98909.59;;;11.58;100.00
28448;BME280;15675;52.870;-1.416;2023-03-22T03:39:25;98897.75;;;11.50;100.00
28448;BME280;15675;52.870;-1.416;2023-03-22T03:41:55;98910.25;;;11.67;100.00
28448;BME280;15675;52.870;-1.416;2023-03-22T03:44:21;98897.94;;;11.73;100.00
28448;BME280;15675;52.870;-1.416;2023-03-22T03:46:47;98880.97;;;11.62;100.00
28448;BME280;15675;52.870;-1.416;2023-03-22T03:49:14;98874.63;;;11.70;100.00
28448;BME280;15675;52.870;-1.416;2023-03-22T03:51:50;98857.97;;;11.48;100.00
28448;BME280;15675;52.870;-1.416;2023-03-22T03:54:15;98852.84;;;11.74;100.00
28448;BME280;15675;52.870;-1.416;2023-03-22T03:56:41;98857.22;;;11.72;100.00
28448;BME280;15675;52.870;-1.416;2023-03-22T03:59:07;98852.28;;;11.93;100.00
28448;BME280;15675;52.870;-1.416;2023-03-22T04:01:34;98853.38;;;11.57;100.00
28448;BME280;15675;52.870;-1.416;2023-03-22T04:04:00;98858.50;;;11.59;100.00
28448;BME280;15675;52.870;-1.416;2023-03-22T04:06:26;98859.34;;;11.60;100.00
28448;BME280;15675;52.870;-1.416;2023-03-22T04:08:52;98859.84;;;11.72;100.00
28448;BME280;15675;52.870;-1.416;2023-03-22T04:11:19;98867.97;;;11.62;100.00
28448;BME280;15675;52.870;-1.416;2023-03-22T04:13:44;98865.69;;;11.79;100.00
28448;BME280;15675;52.870;-1.416;2023-03-22T04:16:10;98858.94;;;11.73;100.00
28448;BME280;15675;52.870;-1.416;2023-03-22T04:18:36;98865.28;;;11.95;100.00
28448;BME280;15675;52.870;-1.416;2023-03-22T04:21:01;98845.06;;;11.74;100.00
28448;BME280;15675;52.870;-1.416;2023-03-22T04:23:27;98854.84;;;11.66;100.00
28448;BME280;15675;52.870;-1.416;2023-03-22T04:25:53;98872.56;;;11.82;100.00
28448;BME280;15675;52.870;-1.416;2023-03-22T04:28:19;98880.53;;;11.75;100.00
28448;BME280;15675;52.870;-1.416;2023-03-22T04:30:46;98876.16;;;11.78;100.00
28448;BME280;15675;52.870;-1.416;2023-03-22T04:33:15;98841.69;;;11.71;100.00
28448;BME280;15675;52.870;-1.416;2023-03-22T04:35:40;98895.03;;;11.83;100.00
28448;BME280;15675;52.870;-1.416;2023-03-22T04:38:06;98878.38;;;11.90;100.00
28448;BME280;15675;52.870;-1.416;2023-03-22T04:40:32;98897.84;;;11.77;100.00
28448;BME280;15675;52.870;-1.416;2023-03-22T04:43:01;98880.88;;;11.93;100.00
28448;BME280;15675;52.870;-1.416;2023-03-22T04:45:28;98887.06;;;11.89;100.00
28448;BME280;15675;52.870;-1.416;2023-03-22T04:47:59;98881.16;;;11.84;100.00
28448;BME280;15675;52.870;-1.416;2023-03-22T04:50:25;98870.13;;;11.75;100.00
28448;BME280;15675;52.870;-1.416;2023-03-22T04:52:52;98881.56;;;11.70;100.00
28448;BME280;15675;52.870;-1.416;2023-03-22T04:55:18;98906.66;;;11.71;100.00
28448;BME280;15675;52.870;-1.416;2023-03-22T04:57:43;98914.25;;;11.49;100.00
28448;BME280;15675;52.870;-1.416;2023-03-22T05:00:10;98906.84;;;11.65;100.00
28448;BME280;15675;52.870;-1.416;2023-03-22T05:02:35;98922.88;;;11.49;100.00
28448;BME280;15675;52.870;-1.416;2023-03-22T05:05:05;98928.25;;;11.43;100.00
28448;BME280;15675;52.870;-1.416;2023-03-22T05:07:31;98938.94;;;11.64;100.00
28448;BME280;15675;52.870;-1.416;2023-03-22T05:09:57;98921.06;;;11.51;100.00
28448;BME280;15675;52.870;-1.416;2023-03-22T05:12:22;98922.53;;;11.62;100.00
28448;BME280;15675;52.870;-1.416;2023-03-22T05:14:48;98914.25;;;11.49;100.00
28448;BME280;15675;52.870;-1.416;2023-03-22T05:17:13;98922.66;;;11.57;100.00
28448;BME280;15675;52.870;-1.416;2023-03-22T05:19:39;98931.19;;;11.62;100.00
28448;BME280;15675;52.870;-1.416;2023-03-22T05:22:04;98948.59;;;11.58;100.00
28448;BME280;15675;52.870;-1.416;2023-03-22T05:24:30;98933.59;;;11.68;100.00
28448;BME280;15675;52.870;-1.416;2023-03-22T05:26:56;98946.84;;;11.59;100.00
28448;BME280;15675;52.870;-1.416;2023-03-22T05:29:26;98923.28;;;11.65;100.00
28448;BME280;15675;52.870;-1.416;2023-03-22T05:31:51;98926.72;;;11.67;100.00
28448;BME280;15675;52.870;-1.416;2023-03-22T05:34:17;98930.28;;;11.63;100.00
28448;BME280;15675;52.870;-1.416;2023-03-22T05:36:44;98943.19;;;11.66;100.00
28448;BME280;15675;52.870;-1.416;2023-03-22T05:39:10;98951.91;;;11.64;100.00
28448;BME280;15675;52.870;-1.416;2023-03-22T05:41:36;98957.63;;;11.77;100.00
28448;BME280;15675;52.870;-1.416;2023-03-22T05:44:03;98963.84;;;11.71;100.00
28448;BME280;15675;52.870;-1.416;2023-03-22T05:46:29;98952.94;;;11.58;100.00
28448;BME280;15675;52.870;-1.416;2023-03-22T05:48:54;98973.03;;;11.83;100.00
28448;BME280;15675;52.870;-1.416;2023-03-22T05:51:20;98974.22;;;11.71;100.00
28448;BME280;15675;52.870;-1.416;2023-03-22T05:53:46;98974.81;;;11.81;100.00
28448;BME280;15675;52.870;-1.416;2023-03-22T05:56:13;98983.41;;;11.83;100.00
28448;BME280;15675;52.870;-1.416;2023-03-22T05:58:38;98986.16;;;11.78;100.00
28448;BME280;15675;52.870;-1.416;2023-03-22T06:01:10;98979.53;;;11.68;100.00
28448;BME280;15675;52.870;-1.416;2023-03-22T06:03:37;98979.03;;;11.55;100.00
28448;BME280;15675;52.870;-1.416;2023-03-22T06:06:05;99003.19;;;11.88;100.00
28448;BME280;15675;52.870;-1.416;2023-03-22T06:08:33;99009.97;;;11.96;100.00
28448;BME280;15675;52.870;-1.416;2023-03-22T06:10:59;99009.19;;;11.28;100.00
28448;BME280;15675;52.870;-1.416;2023-03-22T06:13:25;99001.47;;;10.90;100.00
28448;BME280;15675;52.870;-1.416;2023-03-22T06:15:50;99005.97;;;10.83;100.00
28448;BME280;15675;52.870;-1.416;2023-03-22T06:18:16;99013.19;;;11.07;100.00
28448;BME280;15675;52.870;-1.416;2023-03-22T06:20:41;99007.56;;;10.89;100.00
28448;BME280;15675;52.870;-1.416;2023-03-22T06:23:07;99009.81;;;10.67;100.00
28448;BME280;15675;52.870;-1.416;2023-03-22T06:25:32;99010.34;;;10.81;100.00
28448;BME280;15675;52.870;-1.416;2023-03-22T06:27:58;99013.50;;;10.94;100.00
28448;BME280;15675;52.870;-1.416;2023-03-22T06:30:24;99014.72;;;10.79;100.00
28448;BME280;15675;52.870;-1.416;2023-03-22T06:32:49;99027.50;;;10.51;100.00
28448;BME280;15675;52.870;-1.416;2023-03-22T06:35:15;99028.75;;;10.72;100.00
28448;BME280;15675;52.870;-1.416;2023-03-22T06:37:41;99018.50;;;10.66;100.00
28448;BME280;15675;52.870;-1.416;2023-03-22T06:40:07;99033.28;;;10.62;100.00
28448;BME280;15675;52.870;-1.416;2023-03-22T06:42:33;99034.78;;;10.73;100.00
28448;BME280;15675;52.870;-1.416;2023-03-22T06:44:59;99040.28;;;10.59;100.00
28448;BME280;15675;52.870;-1.416;2023-03-22T06:47:26;99046.25;;;10.62;100.00
28448;BME280;15675;52.870;-1.416;2023-03-22T06:49:52;99042.25;;;10.49;100.00
28448;BME280;15675;52.870;-1.416;2023-03-22T06:52:18;99045.94;;;10.76;100.00
28448;BME280;15675;52.870;-1.416;2023-03-22T06:54:43;99046.59;;;10.47;100.00
28448;BME280;15675;52.870;-1.416;2023-03-22T06:57:09;99047.56;;;10.43;100.00
28448;BME280;15675;52.870;-1.416;2023-03-22T06:59:34;99054.44;;;10.45;96.28
28448;BME280;15675;52.870;-1.416;2023-03-22T07:02:00;99056.41;;;10.34;92.25
28448;BME280;15675;52.870;-1.416;2023-03-22T07:04:25;99065.38;;;10.58;89.37
28448;BME280;15675;52.870;-1.416;2023-03-22T07:06:52;99064.09;;;10.37;87.50
28448;BME280;15675;52.870;-1.416;2023-03-22T07:09:18;99078.72;;;10.41;87.00
28448;BME280;15675;52.870;-1.416;2023-03-22T07:11:43;99060.66;;;10.36;85.81
28448;BME280;15675;52.870;-1.416;2023-03-22T07:14:09;99080.59;;;10.33;86.19
28448;BME280;15675;52.870;-1.416;2023-03-22T07:16:35;99089.41;;;10.24;86.57
28448;BME280;15675;52.870;-1.416;2023-03-22T07:19:01;99085.59;;;10.00;87.67
28448;BME280;15675;52.870;-1.416;2023-03-22T07:21:27;99088.38;;;10.33;87.85
28448;BME280;15675;52.870;-1.416;2023-03-22T07:23:52;99106.44;;;10.39;87.67
28448;BME280;15675;52.870;-1.416;2023-03-22T07:26:19;99115.28;;;10.27;88.80
28448;BME280;15675;52.870;-1.416;2023-03-22T07:28:45;99115.88;;;10.43;87.82
28448;BME280;15675;52.870;-1.416;2023-03-22T07:31:13;99118.72;;;10.29;87.18
28448;BME280;15675;52.870;-1.416;2023-03-22T07:33:39;99118.13;;;10.15;87.35
28448;BME280;15675;52.870;-1.416;2023-03-22T07:36:06;99126.38;;;10.35;88.11
28448;BME280;15675;52.870;-1.416;2023-03-22T07:38:33;99127.09;;;10.44;87.83
28448;BME280;15675;52.870;-1.416;2023-03-22T07:40:58;99135.78;;;10.41;87.47
28448;BME280;15675;52.870;-1.416;2023-03-22T07:43:24;99136.84;;;10.31;88.45
28448;BME280;15675;52.870;-1.416;2023-03-22T07:45:50;99138.97;;;10.54;87.52
28448;BME280;15675;52.870;-1.416;2023-03-22T07:48:17;99134.13;;;10.37;87.75
28448;BME280;15675;52.870;-1.416;2023-03-22T07:50:43;99139.56;;;10.25;88.24
28448;BME280;15675;52.870;-1.416;2023-03-22T07:53:09;99129.25;;;10.20;88.25
28448;BME280;15675;52.870;-1.416;2023-03-22T07:55:35;99129.72;;;9.97;87.91
28448;BME280;15675;52.870;-1.416;2023-03-22T07:58:01;99142.50;;;10.05;88.38
28448;BME280;15675;52.870;-1.416;2023-03-22T08:00:27;99139.81;;;10.11;88.13
28448;BME280;15675;52.870;-1.416;2023-03-22T08:02:53;99128.44;;;10.18;88.75
28448;BME280;15675;52.870;-1.416;2023-03-22T08:05:18;99144.84;;;10.18;89.38
28448;BME280;15675;52.870;-1.416;2023-03-22T08:07:44;99143.63;;;10.38;88.82
28448;BME280;15675;52.870;-1.416;2023-03-22T08:10:10;99154.75;;;10.45;88.82
28448;BME280;15675;52.870;-1.416;2023-03-22T08:12:36;99156.75;;;10.73;89.59
28448;BME280;15675;52.870;-1.416;2023-03-22T08:15:02;99167.44;;;10.98;89.42
28448;BME280;15675;52.870;-1.416;2023-03-22T08:17:27;99166.75;;;10.90;89.16
28448;BME280;15675;52.870;-1.416;2023-03-22T08:19:54;99169.50;;;10.83;89.85
28448;BME280;15675;52.870;-1.416;2023-03-22T08:22:20;99157.59;;;11.12;89.78
28448;BME280;15675;52.870;-1.416;2023-03-22T08:24:53;99156.31;;;10.93;89.19
28448;BME280;15675;52.870;-1.416;2023-03-22T08:27:19;99147.41;;;11.40;88.99
28448;BME280;15675;52.870;-1.416;2023-03-22T08:29:45;99156.91;;;11.04;87.21
28448;BME280;15675;52.870;-1.416;2023-03-22T08:32:12;99143.00;;;11.07;87.04
28448;BME280;15675;52.870;-1.416;2023-03-22T08:34:41;99137.97;;;11.00;84.02
28448;BME280;15675;52.870;-1.416;2023-03-22T08:37:08;99146.34;;;11.13;80.59
28448;BME280;15675;52.870;-1.416;2023-03-22T08:39:35;99142.28;;;11.37;79.05
28448;BME280;15675;52.870;-1.416;2023-03-22T08:42:01;99135.97;;;11.12;76.71
28448;BME280;15675;52.870;-1.416;2023-03-22T08:44:26;99114.66;;;10.99;73.11
28448;BME280;15675;52.870;-1.416;2023-03-22T08:46:52;99118.75;;;11.08;70.13
28448;BME280;15675;52.870;-1.416;2023-03-22T08:49:17;99126.31;;;11.17;70.65
28448;BME280;15675;52.870;-1.416;2023-03-22T08:51:43;99144.88;;;11.72;71.48
28448;BME280;15675;52.870;-1.416;2023-03-22T08:54:09;99132.44;;;11.50;70.46
28448;BME280;15675;52.870;-1.416;2023-03-22T08:56:35;99142.66;;;11.22;70.74
28448;BME280;15675;52.870;-1.416;2023-03-22T08:59:06;99156.59;;;11.18;70.52
28448;BME280;15675;52.870;-1.416;2023-03-22T09:01:33;99138.66;;;11.45;70.71
28448;BME280;15675;52.870;-1.416;2023-03-22T09:03:59;99152.94;;;11.61;70.36
28448;BME280;15675;52.870;-1.416;2023-03-22T09:06:25;99144.97;;;11.34;69.76
28448;BME280;15675;52.870;-1.416;2023-03-22T09:08:51;99142.28;;;11.00;69.32
28448;BME280;15675;52.870;-1.416;2023-03-22T09:11:17;99141.09;;;11.15;71.62
28448;BME280;15675;52.870;-1.416;2023-03-22T09:13:44;99156.38;;;11.27;72.64
28448;BME280;15675;52.870;-1.416;2023-03-22T09:16:10;99165.66;;;11.37;72.20
28448;BME280;15675;52.870;-1.416;2023-03-22T09:18:37;99158.94;;;11.65;73.13
28448;BME280;15675;52.870;-1.416;2023-03-22T09:21:03;99161.50;;;11.66;72.68
28448;BME280;15675;52.870;-1.416;2023-03-22T09:23:29;99160.53;;;12.05;73.58
28448;BME280;15675;52.870;-1.416;2023-03-22T09:25:59;99158.84;;;11.68;73.68
28448;BME280;15675;52.870;-1.416;2023-03-22T09:28:26;99171.72;;;11.72;75.11
28448;BME280;15675;52.870;-1.416;2023-03-22T09:30:52;99166.59;;;11.69;75.82
28448;BME280;15675;52.870;-1.416;2023-03-22T09:33:18;99162.81;;;11.81;76.67
28448;BME280;15675;52.870;-1.416;2023-03-22T09:35:44;99161.25;;;11.75;76.42
28448;BME280;15675;52.870;-1.416;2023-03-22T09:38:10;99153.88;;;11.95;77.93
28448;BME280;15675;52.870;-1.416;2023-03-22T09:40:45;99152.75;;;12.35;77.70
28448;BME280;15675;52.870;-1.416;2023-03-22T09:43:16;99155.38;;;12.03;78.71
28448;BME280;15675;52.870;-1.416;2023-03-22T09:45:46;99147.84;;;11.91;78.59
28448;BME280;15675;52.870;-1.416;2023-03-22T09:48:20;99141.06;;;11.85;79.97
28448;BME280;15675;52.870;-1.416;2023-03-22T09:50:49;99151.53;;;12.17;81.21
28448;BME280;15675;52.870;-1.416;2023-03-22T09:53:16;99155.13;;;12.42;80.85
28448;BME280;15675;52.870;-1.416;2023-03-22T09:55:49;99131.59;;;12.17;79.59
28448;BME280;15675;52.870;-1.416;2023-03-22T09:58:29;99139.56;;;12.09;78.35
28448;BME280;15675;52.870;-1.416;2023-03-22T10:01:47;99131.94;;;12.35;78.04
28448;BME280;15675;52.870;-1.416;2023-03-22T10:04:03;99133.06;;;12.26;77.12
28448;BME280;15675;52.870;-1.416;2023-03-22T10:06:30;99133.59;;;12.07;77.70
28448;BME280;15675;52.870;-1.416;2023-03-22T10:09:29;99140.56;;;12.67;78.36
28448;BME280;15675;52.870;-1.416;2023-03-22T10:14:35;99143.53;;;13.11;76.41
28448;BME280;15675;52.870;-1.416;2023-03-22T10:17:08;99147.13;;;13.37;75.43
28448;BME280;15675;52.870;-1.416;2023-03-22T10:22:22;99143.94;;;12.40;67.70
28448;BME280;15675;52.870;-1.416;2023-03-22T10:24:50;99140.84;;;12.57;67.55
28448;BME280;15675;52.870;-1.416;2023-03-22T10:27:19;99142.59;;;12.27;67.44
28448;BME280;15675;52.870;-1.416;2023-03-22T10:30:02;99149.31;;;12.92;68.56
28448;BME280;15675;52.870;-1.416;2023-03-22T10:32:33;99122.91;;;12.76;68.06
28448;BME280;15675;52.870;-1.416;2023-03-22T10:35:01;99148.25;;;12.71;66.45
28448;BME280;15675;52.870;-1.416;2023-03-22T10:37:31;99142.22;;;12.69;67.78
28448;BME280;15675;52.870;-1.416;2023-03-22T10:40:01;99149.16;;;12.99;67.22
28448;BME280;15675;52.870;-1.416;2023-03-22T10:42:30;99138.09;;;12.62;67.22
28448;BME280;15675;52.870;-1.416;2023-03-22T10:45:00;99145.00;;;12.93;67.59
28448;BME280;15675;52.870;-1.416;2023-03-22T10:47:37;99151.59;;;13.03;67.08
28448;BME280;15675;52.870;-1.416;2023-03-22T10:50:12;99150.88;;;12.98;67.17
28448;BME280;15675;52.870;-1.416;2023-03-22T10:52:51;99153.22;;;12.79;65.45
28448;BME280;15675;52.870;-1.416;2023-03-22T10:55:19;99152.28;;;12.82;66.04
28448;BME280;15675;52.870;-1.416;2023-03-22T10:58:00;99152.59;;;12.99;66.58
28448;BME280;15675;52.870;-1.416;2023-03-22T11:00:32;99147.72;;;13.17;65.26
28448;BME280;15675;52.870;-1.416;2023-03-22T11:02:59;99135.81;;;12.80;61.47
28448;BME280;15675;52.870;-1.416;2023-03-22T11:05:29;99135.25;;;12.98;59.98
28448;BME280;15675;52.870;-1.416;2023-03-22T11:07:56;99131.59;;;12.47;59.95
28448;BME280;15675;52.870;-1.416;2023-03-22T11:10:28;99147.25;;;13.04;61.10
28448;BME280;15675;52.870;-1.416;2023-03-22T11:15:33;99138.25;;;13.14;59.23
28448;BME280;15675;52.870;-1.416;2023-03-22T11:18:04;99143.53;;;13.12;59.03
28448;BME280;15675;52.870;-1.416;2023-03-22T11:20:32;99147.59;;;13.21;59.02
28448;BME280;15675;52.870;-1.416;2023-03-22T11:23:03;99153.00;;;13.69;59.86
28448;BME280;15675;52.870;-1.416;2023-03-22T11:25:33;99145.97;;;13.71;58.74
28448;BME280;15675;52.870;-1.416;2023-03-22T11:30:29;99146.59;;;13.25;58.03
28448;BME280;15675;52.870;-1.416;2023-03-22T11:35:35;99155.78;;;13.64;59.05
28448;BME280;15675;52.870;-1.416;2023-03-22T11:38:01;99147.09;;;13.89;58.76
28448;BME280;15675;52.870;-1.416;2023-03-22T11:40:29;99140.81;;;13.69;59.46
28448;BME280;15675;52.870;-1.416;2023-03-22T11:43:18;99150.47;;;13.67;59.25
28448;BME280;15675;52.870;-1.416;2023-03-22T11:45:48;99148.66;;;13.42;59.69
28448;BME280;15675;52.870;-1.416;2023-03-22T11:48:17;99140.41;;;13.81;60.25
28448;BME280;15675;52.870;-1.416;2023-03-22T11:50:45;99126.13;;;13.67;60.59
28448;BME280;15675;52.870;-1.416;2023-03-22T11:53:14;99144.34;;;13.68;61.34
28448;BME280;15675;52.870;-1.416;2023-03-22T11:55:41;99145.13;;;13.70;61.50
28448;BME280;15675;52.870;-1.416;2023-03-22T11:58:23;99136.09;;;13.80;61.69
28448;BME280;15675;52.870;-1.416;2023-03-22T12:00:53;99120.59;;;13.51;61.73
28448;BME280;15675;52.870;-1.416;2023-03-22T12:03:22;99146.25;;;13.36;61.52
28448;BME280;15675;52.870;-1.416;2023-03-22T12:05:51;99128.38;;;13.77;62.01
28448;BME280;15675;52.870;-1.416;2023-03-22T12:08:40;99132.94;;;13.45;61.88
28448;BME280;15675;52.870;-1.416;2023-03-22T12:11:17;99129.28;;;13.76;61.27
28448;BME280;15675;52.870;-1.416;2023-03-22T12:13:48;99126.09;;;13.68;61.57
28448;BME280;15675;52.870;-1.416;2023-03-22T12:16:21;99107.38;;;13.57;60.63
28448;BME280;15675;52.870;-1.416;2023-03-22T12:22:12;99120.91;;;14.17;59.56
28448;BME280;15675;52.870;-1.416;2023-03-22T12:24:40;99120.38;;;14.07;59.15
28448;BME280;15675;52.870;-1.416;2023-03-22T12:27:15;99110.06;;;14.04;59.13
28448;BME280;15675;52.870;-1.416;2023-03-22T12:29:54;99102.72;;;13.90;58.11
28448;BME280;15675;52.870;-1.416;2023-03-22T12:32:25;99106.31;;;14.11;58.28
28448;BME280;15675;52.870;-1.416;2023-03-22T12:34:53;99108.03;;;14.12;57.94
28448;BME280;15675;52.870;-1.416;2023-03-22T12:37:26;99087.69;;;14.21;56.79
28448;BME280;15675;52.870;-1.416;2023-03-22T12:42:40;99072.03;;;14.44;56.30
28448;BME280;15675;52.870;-1.416;2023-03-22T12:45:13;99022.75;;;14.37;55.66
28448;BME280;15675;52.870;-1.416;2023-03-22T12:47:44;99071.69;;;14.54;56.60
28448;BME280;15675;52.870;-1.416;2023-03-22T12:50:22;99059.75;;;14.46;55.21
28448;BME280;15675;52.870;-1.416;2023-03-22T12:52:50;99058.47;;;14.58;56.31
28448;BME280;15675;52.870;-1.416;2023-03-22T12:55:25;99055.78;;;14.60;56.11
28448;BME280;15675;52.870;-1.416;2023-03-22T12:57:52;99054.66;;;14.43;54.86
28448;BME280;15675;52.870;-1.416;2023-03-22T13:00:35;99057.66;;;14.34;55.27
28448;BME280;15675;52.870;-1.416;2023-03-22T13:03:27;99055.50;;;14.22;55.70
28448;BME280;15675;52.870;-1.416;2023-03-22T13:09:12;99051.56;;;14.33;55.16
28448;BME280;15675;52.870;-1.416;2023-03-22T13:11:42;99054.03;;;14.60;55.90
28448;BME280;15675;52.870;-1.416;2023-03-22T13:14:11;99046.03;;;14.87;56.47
28448;BME280;15675;52.870;-1.416;2023-03-22T13:16:58;99061.16;;;15.01;56.24
28448;BME280;15675;52.870;-1.416;2023-03-22T13:19:28;99056.06;;;14.52;55.91
28448;BME280;15675;52.870;-1.416;2023-03-22T13:22:18;99073.50;;;14.52;56.84
28448;BME280;15675;52.870;-1.416;2023-03-22T13:27:32;99058.91;;;14.92;59.57
28448;BME280;15675;52.870;-1.416;2023-03-22T13:30:00;99053.50;;;14.28;60.80
28448;BME280;15675;52.870;-1.416;2023-03-22T13:32:31;99065.97;;;14.44;60.44
28448;BME280;15675;52.870;-1.416;2023-03-22T13:34:58;99049.88;;;14.32;58.83
28448;BME280;15675;52.870;-1.416;2023-03-22T13:37:36;99044.72;;;14.31;58.94
28448;BME280;15675;52.870;-1.416;2023-03-22T13:40:36;99046.25;;;14.13;57.78
28448;BME280;15675;52.870;-1.416;2023-03-22T13:45:59;99039.38;;;14.10;57.01
28448;BME280;15675;52.870;-1.416;2023-03-22T14:01:52;99040.97;;;13.91;56.60
28448;BME280;15675;52.870;-1.416;2023-03-22T14:04:24;99017.50;;;13.91;56.47
28448;BME280;15675;52.870;-1.416;2023-03-22T14:06:56;99022.81;;;13.88;56.59
28448;BME280;15675;52.870;-1.416;2023-03-22T14:09:37;99030.53;;;14.38;56.51
28448;BME280;15675;52.870;-1.416;2023-03-22T14:14:52;99003.28;;;14.67;55.61